Quincy, CA (95971)

3:29 AM PST on December 06, 2016 (GMT -0800)
East Quincy | | Change Station

Elev 3501 ft 39.93 °N, 120.91 °W | Updated 1 minute ago

Mostly Cloudy
Mostly Cloudy
21.3 °F
Feels Like 21 °F
N
0.0
Wind Variable Wind from SSE

Today
High -- | Low -- °F
--% Chance of Precip.
Yesterday
High -- | Low -- °F
Precip. -- in
Pressure 29.95 in
Visibility 10.0 miles
Clouds Mostly Cloudy 1000 ft
Windchill 21 °F
Dew Point 20 °F
Humidity 95%
Rainfall 0.00 in
Snow Depth Not available.
7:11 AM 4:38 PM
Waxing Crescent, 41% visible
SPECI KBLU 061121Z AUTO 19004KT 10SM BKN010 M01/M03 A2995 RMK AO2 CIG 007V013 T10061028 TSNO
Pressure 29.95 in
Visibility 10.0 miles
Clouds Mostly Cloudy 1000 ft
Windchill 21 °F
Dew Point 20 °F
Humidity 95%
Rainfall 0.00 in
Snow Depth Not available.
7:11 AM 4:38 PM
Waxing Crescent, 41% visible
SPECI KBLU 061121Z AUTO 19004KT 10SM BKN010 M01/M03 A2995 RMK AO2 CIG 007V013 T10061028 TSNO

10-Day Weather Forecast

Almanac

Astronomy

Dec. 06, 2016 Rise Set
Actual Time
Civil Twilight
Nautical Twilight
Astronomical Twilight
Moon
Length of Visible Light
Length of Day
Tomorrow will be .
, % of the Moon is Illuminated

Today's Extremes

State Highs State Lows

Community

WunderPhotos

Upload Photos

1,955,935 photos uploaded!

WunderBlog® & News

Nearby

Air Quality

  Air Quality AQ Index Pollutant
Not available.

Snow Depth

Station Depth Elevation

Earthquake Activity

City Distance Mag. Time & Date
Minimum magnitude displayed is 2.5.

Coastal Water Temperatures

Place Temperature

Stations

Nearby Weather Stations

Station Location Temp. Windchill Dew Point Humidity Wind Precip. Elev Updated Type
                   

Watches & Warnings

There are currently no watches in effect.